sensor_id;sensor_type;location;lat;lon;timestamp;P1;durP1;ratioP1;P2;durP2;ratioP2
67156;SDS011;54086;50.126;8.710;2022-08-20T00:01:25;8.63;;;4.07;;
67156;SDS011;54086;50.126;8.710;2022-08-20T00:03:51;7.67;;;4.03;;
67156;SDS011;54086;50.126;8.710;2022-08-20T00:06:17;8.13;;;4.17;;
67156;SDS011;54086;50.126;8.710;2022-08-20T00:08:45;7.65;;;3.60;;
67156;SDS011;54086;50.126;8.710;2022-08-20T00:11:12;7.63;;;3.83;;
67156;SDS011;54086;50.126;8.710;2022-08-20T00:13:42;7.73;;;3.97;;
67156;SDS011;54086;50.126;8.710;2022-08-20T00:16:12;7.05;;;3.70;;
67156;SDS011;54086;50.126;8.710;2022-08-20T00:18:39;8.25;;;3.80;;
67156;SDS011;54086;50.126;8.710;2022-08-20T00:21:08;9.60;;;3.45;;
67156;SDS011;54086;50.126;8.710;2022-08-20T00:23:36;9.73;;;3.60;;
67156;SDS011;54086;50.126;8.710;2022-08-20T00:26:03;7.30;;;3.37;;
67156;SDS011;54086;50.126;8.710;2022-08-20T00:28:30;9.18;;;3.80;;
67156;SDS011;54086;50.126;8.710;2022-08-20T00:30:55;10.02;;;4.00;;
67156;SDS011;54086;50.126;8.710;2022-08-20T00:33:22;10.03;;;3.80;;
67156;SDS011;54086;50.126;8.710;2022-08-20T00:35:48;9.77;;;3.88;;
67156;SDS011;54086;50.126;8.710;2022-08-20T00:38:18;7.63;;;3.45;;
67156;SDS011;54086;50.126;8.710;2022-08-20T00:40:46;6.53;;;3.20;;
67156;SDS011;54086;50.126;8.710;2022-08-20T00:43:36;7.20;;;3.83;;
67156;SDS011;54086;50.126;8.710;2022-08-20T00:46:10;7.15;;;3.85;;
67156;SDS011;54086;50.126;8.710;2022-08-20T00:48:38;7.75;;;3.58;;
67156;SDS011;54086;50.126;8.710;2022-08-20T00:51:17;8.50;;;3.63;;
67156;SDS011;54086;50.126;8.710;2022-08-20T00:53:45;9.80;;;3.88;;
67156;SDS011;54086;50.126;8.710;2022-08-20T00:56:12;8.47;;;3.50;;
67156;SDS011;54086;50.126;8.710;2022-08-20T00:58:38;9.80;;;3.65;;
67156;SDS011;54086;50.126;8.710;2022-08-20T01:01:05;7.22;;;3.58;;
67156;SDS011;54086;50.126;8.710;2022-08-20T01:03:32;9.40;;;3.90;;
67156;SDS011;54086;50.126;8.710;2022-08-20T01:05:58;8.13;;;3.83;;
67156;SDS011;54086;50.126;8.710;2022-08-20T01:08:24;7.80;;;3.93;;
67156;SDS011;54086;50.126;8.710;2022-08-20T01:10:51;7.38;;;3.70;;
67156;SDS011;54086;50.126;8.710;2022-08-20T01:13:24;6.75;;;3.50;;
67156;SDS011;54086;50.126;8.710;2022-08-20T01:15:51;7.05;;;2.90;;
67156;SDS011;54086;50.126;8.710;2022-08-20T01:18:20;7.60;;;3.58;;
67156;SDS011;54086;50.126;8.710;2022-08-20T01:20:51;10.40;;;3.90;;
67156;SDS011;54086;50.126;8.710;2022-08-20T01:26:18;7.40;;;3.88;;
67156;SDS011;54086;50.126;8.710;2022-08-20T01:28:48;8.75;;;3.83;;
67156;SDS011;54086;50.126;8.710;2022-08-20T01:31:22;6.45;;;3.30;;
67156;SDS011;54086;50.126;8.710;2022-08-20T01:33:50;7.67;;;3.57;;
67156;SDS011;54086;50.126;8.710;2022-08-20T01:36:18;9.10;;;3.67;;
67156;SDS011;54086;50.126;8.710;2022-08-20T01:38:47;7.65;;;3.92;;
67156;SDS011;54086;50.126;8.710;2022-08-20T01:43:51;7.68;;;3.42;;
67156;SDS011;54086;50.126;8.710;2022-08-20T01:46:31;7.05;;;3.15;;
67156;SDS011;54086;50.126;8.710;2022-08-20T01:49:09;9.15;;;3.50;;
67156;SDS011;54086;50.126;8.710;2022-08-20T01:51:44;10.27;;;3.63;;
67156;SDS011;54086;50.126;8.710;2022-08-20T01:54:09;8.07;;;3.50;;
67156;SDS011;54086;50.126;8.710;2022-08-20T01:56:35;6.72;;;3.40;;
67156;SDS011;54086;50.126;8.710;2022-08-20T01:59:19;7.87;;;3.13;;
67156;SDS011;54086;50.126;8.710;2022-08-20T02:01:44;7.90;;;3.60;;
67156;SDS011;54086;50.126;8.710;2022-08-20T02:04:10;8.27;;;3.30;;
67156;SDS011;54086;50.126;8.710;2022-08-20T02:06:47;8.88;;;3.70;;
67156;SDS011;54086;50.126;8.710;2022-08-20T02:09:16;8.98;;;3.85;;
67156;SDS011;54086;50.126;8.710;2022-08-20T02:11:41;8.07;;;3.63;;
67156;SDS011;54086;50.126;8.710;2022-08-20T02:14:07;8.60;;;3.83;;
67156;SDS011;54086;50.126;8.710;2022-08-20T02:16:35;6.57;;;3.55;;
67156;SDS011;54086;50.126;8.710;2022-08-20T02:19:08;7.20;;;3.33;;
67156;SDS011;54086;50.126;8.710;2022-08-20T02:21:42;7.55;;;4.35;;
67156;SDS011;54086;50.126;8.710;2022-08-20T02:24:11;7.18;;;3.58;;
67156;SDS011;54086;50.126;8.710;2022-08-20T02:26:37;12.03;;;4.13;;
67156;SDS011;54086;50.126;8.710;2022-08-20T02:29:04;9.23;;;4.47;;
67156;SDS011;54086;50.126;8.710;2022-08-20T02:31:31;9.25;;;3.70;;
67156;SDS011;54086;50.126;8.710;2022-08-20T02:33:57;10.98;;;4.28;;
67156;SDS011;54086;50.126;8.710;2022-08-20T02:36:22;7.50;;;3.73;;
67156;SDS011;54086;50.126;8.710;2022-08-20T02:38:48;8.17;;;4.30;;
67156;SDS011;54086;50.126;8.710;2022-08-20T02:41:14;8.35;;;3.80;;
67156;SDS011;54086;50.126;8.710;2022-08-20T02:43:39;8.33;;;3.90;;
67156;SDS011;54086;50.126;8.710;2022-08-20T02:46:05;9.05;;;4.00;;
67156;SDS011;54086;50.126;8.710;2022-08-20T02:48:31;8.05;;;4.30;;
67156;SDS011;54086;50.126;8.710;2022-08-20T02:51:00;8.13;;;3.57;;
67156;SDS011;54086;50.126;8.710;2022-08-20T02:53:29;6.80;;;3.45;;
67156;SDS011;54086;50.126;8.710;2022-08-20T02:55:56;10.77;;;4.38;;
67156;SDS011;54086;50.126;8.710;2022-08-20T02:58:23;7.60;;;4.07;;
67156;SDS011;54086;50.126;8.710;2022-08-20T03:00:48;8.87;;;4.57;;
67156;SDS011;54086;50.126;8.710;2022-08-20T03:03:15;9.35;;;4.53;;
67156;SDS011;54086;50.126;8.710;2022-08-20T03:05:44;9.20;;;4.03;;
67156;SDS011;54086;50.126;8.710;2022-08-20T03:08:10;7.80;;;4.13;;
67156;SDS011;54086;50.126;8.710;2022-08-20T03:10:37;7.75;;;4.05;;
67156;SDS011;54086;50.126;8.710;2022-08-20T03:13:06;7.63;;;4.32;;
67156;SDS011;54086;50.126;8.710;2022-08-20T03:15:36;7.50;;;3.95;;
67156;SDS011;54086;50.126;8.710;2022-08-20T03:18:04;7.63;;;4.30;;
67156;SDS011;54086;50.126;8.710;2022-08-20T03:20:30;8.05;;;4.22;;
67156;SDS011;54086;50.126;8.710;2022-08-20T03:22:55;7.10;;;4.03;;
67156;SDS011;54086;50.126;8.710;2022-08-20T03:25:21;9.10;;;4.73;;
67156;SDS011;54086;50.126;8.710;2022-08-20T03:27:47;8.73;;;4.70;;
67156;SDS011;54086;50.126;8.710;2022-08-20T03:30:13;8.95;;;5.40;;
67156;SDS011;54086;50.126;8.710;2022-08-20T03:32:40;8.83;;;5.23;;
67156;SDS011;54086;50.126;8.710;2022-08-20T03:35:07;10.23;;;6.07;;
67156;SDS011;54086;50.126;8.710;2022-08-20T03:37:35;9.77;;;6.30;;
67156;SDS011;54086;50.126;8.710;2022-08-20T03:40:02;9.80;;;5.93;;
67156;SDS011;54086;50.126;8.710;2022-08-20T03:42:30;9.48;;;5.70;;
67156;SDS011;54086;50.126;8.710;2022-08-20T03:44:55;8.97;;;5.03;;
67156;SDS011;54086;50.126;8.710;2022-08-20T03:47:20;8.15;;;5.03;;
67156;SDS011;54086;50.126;8.710;2022-08-20T03:49:46;8.30;;;4.50;;
67156;SDS011;54086;50.126;8.710;2022-08-20T03:52:11;8.87;;;4.60;;
67156;SDS011;54086;50.126;8.710;2022-08-20T03:54:37;8.07;;;4.20;;
67156;SDS011;54086;50.126;8.710;2022-08-20T03:57:03;9.60;;;4.87;;
67156;SDS011;54086;50.126;8.710;2022-08-20T03:59:29;7.95;;;4.53;;
67156;SDS011;54086;50.126;8.710;2022-08-20T04:01:57;7.20;;;4.15;;
67156;SDS011;54086;50.126;8.710;2022-08-20T04:04:23;9.47;;;4.13;;
67156;SDS011;54086;50.126;8.710;2022-08-20T04:06:48;7.50;;;4.05;;
67156;SDS011;54086;50.126;8.710;2022-08-20T04:09:14;7.77;;;4.20;;
67156;SDS011;54086;50.126;8.710;2022-08-20T04:11:39;8.57;;;4.70;;
67156;SDS011;54086;50.126;8.710;2022-08-20T04:14:05;8.70;;;4.43;;
67156;SDS011;54086;50.126;8.710;2022-08-20T04:16:31;9.20;;;4.50;;
67156;SDS011;54086;50.126;8.710;2022-08-20T04:18:57;9.13;;;4.40;;
67156;SDS011;54086;50.126;8.710;2022-08-20T04:21:23;8.98;;;4.53;;
67156;SDS011;54086;50.126;8.710;2022-08-20T04:23:48;10.07;;;4.63;;
67156;SDS011;54086;50.126;8.710;2022-08-20T04:26:13;8.33;;;4.10;;
67156;SDS011;54086;50.126;8.710;2022-08-20T04:28:40;8.23;;;4.47;;
67156;SDS011;54086;50.126;8.710;2022-08-20T04:31:05;7.90;;;4.60;;
67156;SDS011;54086;50.126;8.710;2022-08-20T04:33:30;9.07;;;4.70;;
67156;SDS011;54086;50.126;8.710;2022-08-20T04:35:57;10.23;;;4.90;;
67156;SDS011;54086;50.126;8.710;2022-08-20T04:38:26;10.88;;;6.30;;
67156;SDS011;54086;50.126;8.710;2022-08-20T04:40:53;9.37;;;4.63;;
67156;SDS011;54086;50.126;8.710;2022-08-20T04:43:26;8.82;;;4.82;;
67156;SDS011;54086;50.126;8.710;2022-08-20T04:45:53;8.50;;;4.97;;
67156;SDS011;54086;50.126;8.710;2022-08-20T04:48:21;8.93;;;4.63;;
67156;SDS011;54086;50.126;8.710;2022-08-20T04:50:48;11.82;;;5.40;;
67156;SDS011;54086;50.126;8.710;2022-08-20T04:53:16;11.27;;;6.13;;
67156;SDS011;54086;50.126;8.710;2022-08-20T04:55:43;12.18;;;7.22;;
67156;SDS011;54086;50.126;8.710;2022-08-20T04:58:17;10.57;;;7.03;;
67156;SDS011;54086;50.126;8.710;2022-08-20T05:00:56;12.48;;;7.68;;
67156;SDS011;54086;50.126;8.710;2022-08-20T05:03:24;12.63;;;7.68;;
67156;SDS011;54086;50.126;8.710;2022-08-20T05:05:50;12.50;;;7.87;;
67156;SDS011;54086;50.126;8.710;2022-08-20T05:08:17;13.18;;;8.80;;
67156;SDS011;54086;50.126;8.710;2022-08-20T05:10:44;11.82;;;8.10;;
67156;SDS011;54086;50.126;8.710;2022-08-20T05:13:10;12.60;;;7.90;;
67156;SDS011;54086;50.126;8.710;2022-08-20T05:15:36;11.95;;;7.93;;
67156;SDS011;54086;50.126;8.710;2022-08-20T05:18:04;11.85;;;8.13;;
67156;SDS011;54086;50.126;8.710;2022-08-20T05:20:32;13.32;;;8.93;;
67156;SDS011;54086;50.126;8.710;2022-08-20T05:23:02;12.67;;;8.47;;
67156;SDS011;54086;50.126;8.710;2022-08-20T05:25:29;13.00;;;8.27;;
67156;SDS011;54086;50.126;8.710;2022-08-20T05:27:55;11.77;;;8.57;;
67156;SDS011;54086;50.126;8.710;2022-08-20T05:30:24;11.57;;;7.68;;
67156;SDS011;54086;50.126;8.710;2022-08-20T05:32:51;10.98;;;7.15;;
67156;SDS011;54086;50.126;8.710;2022-08-20T05:35:16;11.43;;;7.30;;
67156;SDS011;54086;50.126;8.710;2022-08-20T05:37:41;11.73;;;7.83;;
67156;SDS011;54086;50.126;8.710;2022-08-20T05:40:08;14.03;;;7.73;;
67156;SDS011;54086;50.126;8.710;2022-08-20T05:42:35;11.75;;;8.05;;
67156;SDS011;54086;50.126;8.710;2022-08-20T05:45:01;11.70;;;7.40;;
67156;SDS011;54086;50.126;8.710;2022-08-20T05:47:27;12.93;;;8.18;;
67156;SDS011;54086;50.126;8.710;2022-08-20T05:49:53;11.02;;;7.55;;
67156;SDS011;54086;50.126;8.710;2022-08-20T05:52:19;11.00;;;7.23;;
67156;SDS011;54086;50.126;8.710;2022-08-20T05:54:44;10.93;;;7.60;;
67156;SDS011;54086;50.126;8.710;2022-08-20T05:57:09;11.13;;;7.90;;
67156;SDS011;54086;50.126;8.710;2022-08-20T05:59:35;12.35;;;8.23;;
67156;SDS011;54086;50.126;8.710;2022-08-20T06:02:03;12.57;;;9.50;;
67156;SDS011;54086;50.126;8.710;2022-08-20T06:04:49;14.20;;;10.07;;
67156;SDS011;54086;50.126;8.710;2022-08-20T06:07:14;15.50;;;9.23;;
67156;SDS011;54086;50.126;8.710;2022-08-20T06:09:39;13.70;;;9.50;;
67156;SDS011;54086;50.126;8.710;2022-08-20T06:12:05;12.60;;;8.60;;
67156;SDS011;54086;50.126;8.710;2022-08-20T06:14:33;12.80;;;8.77;;
67156;SDS011;54086;50.126;8.710;2022-08-20T06:17:09;13.27;;;9.33;;
67156;SDS011;54086;50.126;8.710;2022-08-20T06:19:37;12.88;;;8.80;;
67156;SDS011;54086;50.126;8.710;2022-08-20T06:22:03;12.77;;;8.70;;
67156;SDS011;54086;50.126;8.710;2022-08-20T06:24:30;15.40;;;9.45;;
67156;SDS011;54086;50.126;8.710;2022-08-20T06:26:56;14.73;;;9.70;;
67156;SDS011;54086;50.126;8.710;2022-08-20T06:29:26;15.27;;;10.02;;
67156;SDS011;54086;50.126;8.710;2022-08-20T06:31:52;15.80;;;9.60;;
67156;SDS011;54086;50.126;8.710;2022-08-20T06:34:18;15.43;;;9.60;;
67156;SDS011;54086;50.126;8.710;2022-08-20T06:36:44;12.98;;;9.10;;
67156;SDS011;54086;50.126;8.710;2022-08-20T06:39:11;16.80;;;10.63;;
67156;SDS011;54086;50.126;8.710;2022-08-20T06:41:37;13.25;;;9.48;;
67156;SDS011;54086;50.126;8.710;2022-08-20T06:44:03;13.07;;;8.95;;
67156;SDS011;54086;50.126;8.710;2022-08-20T06:46:30;13.60;;;8.75;;
67156;SDS011;54086;50.126;8.710;2022-08-20T06:48:56;13.30;;;8.57;;
67156;SDS011;54086;50.126;8.710;2022-08-20T06:51:21;13.27;;;8.77;;
67156;SDS011;54086;50.126;8.710;2022-08-20T06:53:47;12.68;;;8.95;;
67156;SDS011;54086;50.126;8.710;2022-08-20T06:56:12;13.40;;;8.80;;
67156;SDS011;54086;50.126;8.710;2022-08-20T06:58:38;13.70;;;8.33;;
67156;SDS011;54086;50.126;8.710;2022-08-20T07:01:06;12.38;;;8.98;;
67156;SDS011;54086;50.126;8.710;2022-08-20T07:03:33;13.88;;;8.90;;
67156;SDS011;54086;50.126;8.710;2022-08-20T07:05:58;12.23;;;8.37;;
67156;SDS011;54086;50.126;8.710;2022-08-20T07:08:23;11.83;;;7.97;;
67156;SDS011;54086;50.126;8.710;2022-08-20T07:10:49;12.97;;;9.07;;
67156;SDS011;54086;50.126;8.710;2022-08-20T07:13:15;12.95;;;8.88;;
67156;SDS011;54086;50.126;8.710;2022-08-20T07:15:41;12.23;;;8.07;;
67156;SDS011;54086;50.126;8.710;2022-08-20T07:18:07;12.93;;;8.97;;
67156;SDS011;54086;50.126;8.710;2022-08-20T07:20:35;13.65;;;9.25;;
67156;SDS011;54086;50.126;8.710;2022-08-20T07:23:02;13.25;;;8.23;;
67156;SDS011;54086;50.126;8.710;2022-08-20T07:25:28;12.70;;;8.90;;
67156;SDS011;54086;50.126;8.710;2022-08-20T07:28:04;11.75;;;7.97;;
67156;SDS011;54086;50.126;8.710;2022-08-20T07:30:40;11.52;;;7.80;;
67156;SDS011;54086;50.126;8.710;2022-08-20T07:33:28;11.23;;;8.05;;
67156;SDS011;54086;50.126;8.710;2022-08-20T07:35:57;11.20;;;8.15;;
67156;SDS011;54086;50.126;8.710;2022-08-20T07:38:24;14.50;;;8.17;;
67156;SDS011;54086;50.126;8.710;2022-08-20T07:40:52;13.05;;;8.25;;
67156;SDS011;54086;50.126;8.710;2022-08-20T07:43:22;12.10;;;8.32;;
67156;SDS011;54086;50.126;8.710;2022-08-20T07:45:51;12.82;;;8.15;;
67156;SDS011;54086;50.126;8.710;2022-08-20T07:48:19;11.45;;;7.80;;
67156;SDS011;54086;50.126;8.710;2022-08-20T07:50:45;11.73;;;7.73;;
67156;SDS011;54086;50.126;8.710;2022-08-20T07:53:12;12.18;;;8.05;;
67156;SDS011;54086;50.126;8.710;2022-08-20T07:55:38;11.30;;;7.83;;
67156;SDS011;54086;50.126;8.710;2022-08-20T07:58:07;12.95;;;8.23;;
67156;SDS011;54086;50.126;8.710;2022-08-20T08:00:35;13.02;;;8.00;;
67156;SDS011;54086;50.126;8.710;2022-08-20T08:03:01;11.23;;;7.87;;
67156;SDS011;54086;50.126;8.710;2022-08-20T08:05:28;12.13;;;8.27;;
67156;SDS011;54086;50.126;8.710;2022-08-20T08:07:54;10.60;;;7.60;;
67156;SDS011;54086;50.126;8.710;2022-08-20T08:10:20;10.30;;;7.25;;
67156;SDS011;54086;50.126;8.710;2022-08-20T08:12:49;13.88;;;7.30;;
67156;SDS011;54086;50.126;8.710;2022-08-20T08:15:18;8.93;;;6.13;;
67156;SDS011;54086;50.126;8.710;2022-08-20T08:17:47;9.50;;;6.47;;
67156;SDS011;54086;50.126;8.710;2022-08-20T08:20:14;9.63;;;6.28;;
67156;SDS011;54086;50.126;8.710;2022-08-20T08:22:40;8.83;;;5.73;;
67156;SDS011;54086;50.126;8.710;2022-08-20T08:25:08;9.00;;;5.45;;
67156;SDS011;54086;50.126;8.710;2022-08-20T08:27:35;7.93;;;5.22;;
67156;SDS011;54086;50.126;8.710;2022-08-20T08:30:01;9.23;;;5.40;;
67156;SDS011;54086;50.126;8.710;2022-08-20T08:32:28;10.53;;;5.37;;
67156;SDS011;54086;50.126;8.710;2022-08-20T08:34:55;9.05;;;4.72;;
67156;SDS011;54086;50.126;8.710;2022-08-20T08:37:21;8.30;;;4.85;;
67156;SDS011;54086;50.126;8.710;2022-08-20T08:39:47;9.23;;;5.13;;
67156;SDS011;54086;50.126;8.710;2022-08-20T08:42:22;9.57;;;5.53;;
67156;SDS011;54086;50.126;8.710;2022-08-20T08:44:52;10.67;;;5.00;;
67156;SDS011;54086;50.126;8.710;2022-08-20T08:47:29;7.97;;;4.40;;
67156;SDS011;54086;50.126;8.710;2022-08-20T08:49:59;7.13;;;3.90;;
67156;SDS011;54086;50.126;8.710;2022-08-20T08:52:27;7.95;;;3.60;;
67156;SDS011;54086;50.126;8.710;2022-08-20T08:54:57;10.45;;;5.00;;
67156;SDS011;54086;50.126;8.710;2022-08-20T08:57:25;8.98;;;3.80;;
67156;SDS011;54086;50.126;8.710;2022-08-20T08:59:58;6.30;;;3.47;;
67156;SDS011;54086;50.126;8.710;2022-08-20T09:02:26;6.45;;;3.40;;
67156;SDS011;54086;50.126;8.710;2022-08-20T09:04:54;6.70;;;3.80;;
67156;SDS011;54086;50.126;8.710;2022-08-20T09:07:22;9.68;;;4.28;;
67156;SDS011;54086;50.126;8.710;2022-08-20T09:09:50;7.43;;;4.30;;
67156;SDS011;54086;50.126;8.710;2022-08-20T09:12:20;7.87;;;4.90;;
67156;SDS011;54086;50.126;8.710;2022-08-20T09:14:47;7.82;;;4.72;;
67156;SDS011;54086;50.126;8.710;2022-08-20T09:17:15;8.45;;;4.65;;
67156;SDS011;54086;50.126;8.710;2022-08-20T09:19:42;7.75;;;4.28;;
67156;SDS011;54086;50.126;8.710;2022-08-20T09:22:11;7.37;;;4.30;;
67156;SDS011;54086;50.126;8.710;2022-08-20T09:24:39;9.20;;;4.82;;
67156;SDS011;54086;50.126;8.710;2022-08-20T09:27:05;7.18;;;4.50;;
67156;SDS011;54086;50.126;8.710;2022-08-20T09:29:31;9.83;;;5.47;;
67156;SDS011;54086;50.126;8.710;2022-08-20T09:32:07;22.05;;;6.55;;
67156;SDS011;54086;50.126;8.710;2022-08-20T09:34:38;7.88;;;4.75;;
67156;SDS011;54086;50.126;8.710;2022-08-20T09:37:06;7.70;;;4.60;;
67156;SDS011;54086;50.126;8.710;2022-08-20T09:39:32;7.63;;;4.20;;
67156;SDS011;54086;50.126;8.710;2022-08-20T09:42:14;8.83;;;4.37;;
67156;SDS011;54086;50.126;8.710;2022-08-20T09:44:41;7.43;;;3.77;;
67156;SDS011;54086;50.126;8.710;2022-08-20T09:47:08;7.95;;;3.78;;
67156;SDS011;54086;50.126;8.710;2022-08-20T09:49:34;7.35;;;3.35;;
67156;SDS011;54086;50.126;8.710;2022-08-20T09:52:01;8.15;;;3.70;;
67156;SDS011;54086;50.126;8.710;2022-08-20T09:54:28;6.30;;;3.33;;
67156;SDS011;54086;50.126;8.710;2022-08-20T09:56:58;6.90;;;3.40;;
67156;SDS011;54086;50.126;8.710;2022-08-20T09:59:26;6.90;;;3.45;;
67156;SDS011;54086;50.126;8.710;2022-08-20T10:01:52;6.18;;;3.15;;
67156;SDS011;54086;50.126;8.710;2022-08-20T10:04:18;7.20;;;3.40;;
67156;SDS011;54086;50.126;8.710;2022-08-20T10:06:44;6.90;;;3.30;;
67156;SDS011;54086;50.126;8.710;2022-08-20T10:09:09;6.63;;;3.35;;
67156;SDS011;54086;50.126;8.710;2022-08-20T10:11:35;6.50;;;3.10;;
67156;SDS011;54086;50.126;8.710;2022-08-20T10:14:00;5.80;;;2.70;;
67156;SDS011;54086;50.126;8.710;2022-08-20T10:16:26;6.70;;;3.40;;
67156;SDS011;54086;50.126;8.710;2022-08-20T10:18:51;5.60;;;2.77;;
67156;SDS011;54086;50.126;8.710;2022-08-20T10:21:17;9.02;;;3.40;;
67156;SDS011;54086;50.126;8.710;2022-08-20T10:23:43;8.17;;;3.60;;
67156;SDS011;54086;50.126;8.710;2022-08-20T10:26:08;8.80;;;3.30;;
67156;SDS011;54086;50.126;8.710;2022-08-20T10:28:35;6.00;;;2.80;;
67156;SDS011;54086;50.126;8.710;2022-08-20T10:31:00;6.40;;;2.58;;
67156;SDS011;54086;50.126;8.710;2022-08-20T10:33:26;6.40;;;2.60;;
67156;SDS011;54086;50.126;8.710;2022-08-20T10:35:51;6.20;;;2.70;;
67156;SDS011;54086;50.126;8.710;2022-08-20T10:38:17;5.60;;;2.20;;
67156;SDS011;54086;50.126;8.710;2022-08-20T10:40:42;5.87;;;2.70;;
67156;SDS011;54086;50.126;8.710;2022-08-20T10:43:07;5.67;;;2.20;;
67156;SDS011;54086;50.126;8.710;2022-08-20T10:45:33;5.70;;;2.60;;
67156;SDS011;54086;50.126;8.710;2022-08-20T10:47:59;4.97;;;2.40;;
67156;SDS011;54086;50.126;8.710;2022-08-20T10:50:24;6.75;;;2.80;;
67156;SDS011;54086;50.126;8.710;2022-08-20T10:52:50;7.73;;;2.60;;
67156;SDS011;54086;50.126;8.710;2022-08-20T10:55:15;5.40;;;2.30;;
67156;SDS011;54086;50.126;8.710;2022-08-20T10:57:41;5.53;;;2.53;;
67156;SDS011;54086;50.126;8.710;2022-08-20T11:00:07;4.97;;;2.17;;
67156;SDS011;54086;50.126;8.710;2022-08-20T11:02:34;5.72;;;2.38;;
67156;SDS011;54086;50.126;8.710;2022-08-20T11:04:59;6.43;;;2.40;;
67156;SDS011;54086;50.126;8.710;2022-08-20T11:07:26;4.93;;;2.20;;
67156;SDS011;54086;50.126;8.710;2022-08-20T11:09:54;5.40;;;2.28;;
67156;SDS011;54086;50.126;8.710;2022-08-20T11:12:20;5.88;;;2.28;;
67156;SDS011;54086;50.126;8.710;2022-08-20T11:14:47;5.63;;;2.45;;
67156;SDS011;54086;50.126;8.710;2022-08-20T11:17:24;5.88;;;2.40;;
67156;SDS011;54086;50.126;8.710;2022-08-20T11:19:51;6.10;;;2.30;;
67156;SDS011;54086;50.126;8.710;2022-08-20T11:22:18;5.60;;;2.43;;
67156;SDS011;54086;50.126;8.710;2022-08-20T11:24:44;4.93;;;1.98;;
67156;SDS011;54086;50.126;8.710;2022-08-20T11:27:10;5.28;;;2.30;;
67156;SDS011;54086;50.126;8.710;2022-08-20T11:29:41;5.78;;;2.10;;
67156;SDS011;54086;50.126;8.710;2022-08-20T11:32:07;9.43;;;2.77;;
67156;SDS011;54086;50.126;8.710;2022-08-20T11:34:32;5.90;;;2.40;;
67156;SDS011;54086;50.126;8.710;2022-08-20T11:36:57;5.30;;;2.00;;
67156;SDS011;54086;50.126;8.710;2022-08-20T11:39:23;4.28;;;1.70;;
67156;SDS011;54086;50.126;8.710;2022-08-20T11:41:50;6.32;;;1.88;;
67156;SDS011;54086;50.126;8.710;2022-08-20T11:44:15;5.00;;;2.00;;
67156;SDS011;54086;50.126;8.710;2022-08-20T11:46:41;7.00;;;2.27;;
67156;SDS011;54086;50.126;8.710;2022-08-20T11:49:06;5.70;;;2.20;;
67156;SDS011;54086;50.126;8.710;2022-08-20T11:51:32;5.15;;;2.15;;
67156;SDS011;54086;50.126;8.710;2022-08-20T11:53:57;4.63;;;2.00;;
67156;SDS011;54086;50.126;8.710;2022-08-20T11:56:23;4.20;;;1.67;;
67156;SDS011;54086;50.126;8.710;2022-08-20T11:58:48;4.20;;;1.58;;
67156;SDS011;54086;50.126;8.710;2022-08-20T12:01:13;4.80;;;2.13;;
67156;SDS011;54086;50.126;8.710;2022-08-20T12:03:39;4.80;;;1.80;;
67156;SDS011;54086;50.126;8.710;2022-08-20T12:06:04;4.45;;;1.75;;
67156;SDS011;54086;50.126;8.710;2022-08-20T12:08:30;6.00;;;1.90;;
67156;SDS011;54086;50.126;8.710;2022-08-20T12:10:56;4.33;;;1.60;;
67156;SDS011;54086;50.126;8.710;2022-08-20T12:13:23;10.60;;;2.22;;
67156;SDS011;54086;50.126;8.710;2022-08-20T12:15:49;7.70;;;2.00;;
67156;SDS011;54086;50.126;8.710;2022-08-20T12:18:15;3.70;;;1.70;;
67156;SDS011;54086;50.126;8.710;2022-08-20T12:20:40;4.80;;;1.88;;
67156;SDS011;54086;50.126;8.710;2022-08-20T12:23:06;4.33;;;1.57;;
67156;SDS011;54086;50.126;8.710;2022-08-20T12:25:31;4.23;;;1.60;;
67156;SDS011;54086;50.126;8.710;2022-08-20T12:27:57;4.70;;;1.70;;
67156;SDS011;54086;50.126;8.710;2022-08-20T12:30:23;4.47;;;1.90;;
67156;SDS011;54086;50.126;8.710;2022-08-20T12:32:49;6.45;;;2.00;;
67156;SDS011;54086;50.126;8.710;2022-08-20T12:35:15;5.27;;;2.13;;
67156;SDS011;54086;50.126;8.710;2022-08-20T12:37:42;5.22;;;1.80;;
67156;SDS011;54086;50.126;8.710;2022-08-20T12:40:09;4.95;;;1.70;;
67156;SDS011;54086;50.126;8.710;2022-08-20T12:42:37;5.60;;;2.10;;
67156;SDS011;54086;50.126;8.710;2022-08-20T12:45:03;4.00;;;1.60;;
67156;SDS011;54086;50.126;8.710;2022-08-20T12:47:30;4.45;;;2.10;;
67156;SDS011;54086;50.126;8.710;2022-08-20T12:49:59;4.22;;;1.90;;
67156;SDS011;54086;50.126;8.710;2022-08-20T12:52:27;3.78;;;1.70;;
67156;SDS011;54086;50.126;8.710;2022-08-20T12:54:54;3.58;;;1.55;;
67156;SDS011;54086;50.126;8.710;2022-08-20T12:57:25;3.63;;;1.90;;
67156;SDS011;54086;50.126;8.710;2022-08-20T12:59:52;3.47;;;1.70;;
67156;SDS011;54086;50.126;8.710;2022-08-20T13:02:17;4.30;;;1.50;;
67156;SDS011;54086;50.126;8.710;2022-08-20T13:04:43;3.57;;;1.30;;
67156;SDS011;54086;50.126;8.710;2022-08-20T13:07:09;4.33;;;1.90;;
67156;SDS011;54086;50.126;8.710;2022-08-20T13:09:36;3.40;;;1.73;;
67156;SDS011;54086;50.126;8.710;2022-08-20T13:12:02;4.40;;;1.90;;
67156;SDS011;54086;50.126;8.710;2022-08-20T13:14:28;2.50;;;1.30;;
67156;SDS011;54086;50.126;8.710;2022-08-20T13:16:54;4.40;;;1.77;;
67156;SDS011;54086;50.126;8.710;2022-08-20T13:19:24;5.03;;;1.90;;
67156;SDS011;54086;50.126;8.710;2022-08-20T13:21:51;2.97;;;1.48;;
67156;SDS011;54086;50.126;8.710;2022-08-20T13:24:17;5.28;;;2.00;;
67156;SDS011;54086;50.126;8.710;2022-08-20T13:26:42;5.27;;;1.93;;
67156;SDS011;54086;50.126;8.710;2022-08-20T13:29:08;3.80;;;1.63;;
67156;SDS011;54086;50.126;8.710;2022-08-20T13:31:33;7.28;;;1.63;;
67156;SDS011;54086;50.126;8.710;2022-08-20T13:33:59;4.40;;;1.53;;
67156;SDS011;54086;50.126;8.710;2022-08-20T13:36:24;4.80;;;1.70;;
67156;SDS011;54086;50.126;8.710;2022-08-20T13:38:50;3.60;;;1.48;;
67156;SDS011;54086;50.126;8.710;2022-08-20T13:41:15;4.87;;;2.07;;
67156;SDS011;54086;50.126;8.710;2022-08-20T13:43:40;6.17;;;2.10;;
67156;SDS011;54086;50.126;8.710;2022-08-20T13:46:06;4.07;;;1.70;;
67156;SDS011;54086;50.126;8.710;2022-08-20T13:48:31;4.10;;;1.73;;
67156;SDS011;54086;50.126;8.710;2022-08-20T13:50:57;3.13;;;1.37;;
67156;SDS011;54086;50.126;8.710;2022-08-20T13:53:23;5.93;;;2.00;;
67156;SDS011;54086;50.126;8.710;2022-08-20T13:55:49;8.70;;;2.30;;
67156;SDS011;54086;50.126;8.710;2022-08-20T13:58:15;5.73;;;1.37;;
67156;SDS011;54086;50.126;8.710;2022-08-20T14:00:42;4.72;;;2.28;;
67156;SDS011;54086;50.126;8.710;2022-08-20T14:03:09;5.60;;;2.50;;
67156;SDS011;54086;50.126;8.710;2022-08-20T14:05:35;5.07;;;1.83;;
67156;SDS011;54086;50.126;8.710;2022-08-20T14:08:05;4.70;;;2.33;;
67156;SDS011;54086;50.126;8.710;2022-08-20T14:10:33;5.13;;;2.50;;
67156;SDS011;54086;50.126;8.710;2022-08-20T14:12:59;7.40;;;3.00;;
67156;SDS011;54086;50.126;8.710;2022-08-20T14:15:24;5.30;;;2.35;;
67156;SDS011;54086;50.126;8.710;2022-08-20T14:17:51;5.15;;;2.00;;
67156;SDS011;54086;50.126;8.710;2022-08-20T14:20:19;4.63;;;1.83;;
67156;SDS011;54086;50.126;8.710;2022-08-20T14:22:46;6.70;;;3.10;;
67156;SDS011;54086;50.126;8.710;2022-08-20T14:25:13;6.00;;;2.75;;
67156;SDS011;54086;50.126;8.710;2022-08-20T14:27:40;5.70;;;2.70;;
67156;SDS011;54086;50.126;8.710;2022-08-20T14:30:08;5.37;;;2.50;;
67156;SDS011;54086;50.126;8.710;2022-08-20T14:32:42;6.13;;;2.50;;
67156;SDS011;54086;50.126;8.710;2022-08-20T14:35:08;5.60;;;2.40;;
67156;SDS011;54086;50.126;8.710;2022-08-20T14:37:35;6.38;;;2.72;;
67156;SDS011;54086;50.126;8.710;2022-08-20T14:40:03;7.25;;;3.10;;
67156;SDS011;54086;50.126;8.710;2022-08-20T14:42:31;5.50;;;2.20;;
67156;SDS011;54086;50.126;8.710;2022-08-20T14:44:57;7.10;;;2.30;;
67156;SDS011;54086;50.126;8.710;2022-08-20T14:47:29;7.82;;;3.00;;
67156;SDS011;54086;50.126;8.710;2022-08-20T14:49:58;8.65;;;3.40;;